createdAt,value
2022-08-26T00:00:18.779Z,40.58
2022-08-26T00:03:03.549Z,40.82
2022-08-26T00:05:48.396Z,40.86
2022-08-26T00:08:33.530Z,41.27
2022-08-26T00:11:26.609Z,41.55
2022-08-26T00:14:12.455Z,41.17
2022-08-26T00:16:58.363Z,41.56
2022-08-26T00:19:43.566Z,41.64
2022-08-26T00:22:28.336Z,41.50
2022-08-26T00:25:12.938Z,41.65
2022-08-26T00:27:57.738Z,41.67
2022-08-26T00:30:42.455Z,41.37
2022-08-26T00:33:27.374Z,41.45
2022-08-26T00:36:20.044Z,41.64
2022-08-26T00:39:05.446Z,41.75
2022-08-26T00:41:51.135Z,41.50
2022-08-26T00:44:36.566Z,41.89
2022-08-26T00:47:21.294Z,41.72
2022-08-26T00:50:06.190Z,41.46
2022-08-26T00:52:50.937Z,41.25
2022-08-26T00:55:38.018Z,41.65
2022-08-26T00:58:23.660Z,42.22
2022-08-26T01:01:08.373Z,42.15
2022-08-26T01:03:53.599Z,42.30
2022-08-26T01:06:40.229Z,42.70
2022-08-26T01:09:28.937Z,42.66
2022-08-26T01:12:14.688Z,42.42
2022-08-26T01:14:59.411Z,42.76
2022-08-26T01:17:44.245Z,42.50
2022-08-26T01:23:13.017Z,43.05
2022-08-26T01:29:01.531Z,43.16
2022-08-26T01:31:46.407Z,42.76
2022-08-26T01:34:31.476Z,42.90
2022-08-26T01:37:16.244Z,42.76
2022-08-26T01:40:01.018Z,42.74
2022-08-26T01:42:46.218Z,42.66
2022-08-26T01:45:32.340Z,42.50
2022-08-26T01:48:17.492Z,42.55
2022-08-26T01:51:02.286Z,42.49
2022-08-26T01:53:46.957Z,42.48
2022-08-26T01:56:33.382Z,42.66
2022-08-26T01:59:21.432Z,42.82
2022-08-26T02:02:06.589Z,42.90
2022-08-26T02:04:51.393Z,42.77
2022-08-26T02:07:36.697Z,42.89
2022-08-26T02:10:21.965Z,42.78
2022-08-26T02:13:06.958Z,42.89
2022-08-26T02:15:52.038Z,42.96
2022-08-26T02:18:36.900Z,43.13
2022-08-26T02:21:22.127Z,42.68
2022-08-26T02:24:09.873Z,42.64
2022-08-26T02:26:55.350Z,43.13
2022-08-26T02:29:40.993Z,43.21
2022-08-26T02:32:25.827Z,43.19
2022-08-26T02:35:11.950Z,43.19
2022-08-26T02:37:56.773Z,43.60
2022-08-26T02:40:43.175Z,43.28
2022-08-26T02:43:32.682Z,43.04
2022-08-26T02:46:27.603Z,43.35
2022-08-26T02:49:15.161Z,43.22
2022-08-26T02:51:59.962Z,43.32
2022-08-26T02:54:46.700Z,43.50
2022-08-26T02:57:34.415Z,43.56
2022-08-26T03:00:19.307Z,43.64
2022-08-26T03:03:04.120Z,43.78
2022-08-26T03:05:49.328Z,44.09
2022-08-26T03:08:34.166Z,44.03
2022-08-26T03:11:18.820Z,43.79
2022-08-26T03:14:03.877Z,43.81
2022-08-26T03:16:48.991Z,43.93
2022-08-26T03:19:33.774Z,43.98
2022-08-26T03:22:20.503Z,43.97
2022-08-26T03:25:05.287Z,44.03
2022-08-26T03:27:50.166Z,44.32
2022-08-26T03:30:34.863Z,44.51
2022-08-26T03:33:19.673Z,44.08
2022-08-26T03:36:04.367Z,44.30
2022-08-26T03:38:49.333Z,44.09
2022-08-26T03:41:34.099Z,44.26
2022-08-26T03:44:19.620Z,44.60
2022-08-26T03:47:04.219Z,44.33
2022-08-26T03:49:50.986Z,44.14
2022-08-26T03:52:39.634Z,44.53
2022-08-26T03:55:28.883Z,44.57
2022-08-26T03:58:13.526Z,44.85
2022-08-26T04:00:58.431Z,44.64
2022-08-26T04:03:43.201Z,43.91
2022-08-26T04:06:27.989Z,44.01
2022-08-26T04:09:12.668Z,43.26
2022-08-26T04:11:57.458Z,43.80
2022-08-26T04:14:42.146Z,43.28
2022-08-26T04:17:26.862Z,43.29
2022-08-26T04:20:11.753Z,42.59
2022-08-26T04:22:56.459Z,42.83
2022-08-26T04:25:42.339Z,43.29
2022-08-26T04:28:27.588Z,43.29
2022-08-26T04:31:12.531Z,43.46
2022-08-26T04:33:57.184Z,42.94
2022-08-26T04:36:42.052Z,43.63
2022-08-26T04:39:27.693Z,43.25
2022-08-26T04:42:13.040Z,43.40
2022-08-26T04:44:57.809Z,43.60
2022-08-26T04:47:42.726Z,43.85
2022-08-26T04:50:28.475Z,43.30
2022-08-26T04:53:13.652Z,43.76
2022-08-26T04:55:59.006Z,43.36
2022-08-26T04:58:43.977Z,43.75
2022-08-26T05:01:28.766Z,42.94
2022-08-26T05:04:16.323Z,42.95
2022-08-26T05:07:03.939Z,44.28
2022-08-26T05:09:48.612Z,44.21
2022-08-26T05:12:33.400Z,44.15
2022-08-26T05:15:17.966Z,44.77
2022-08-26T05:18:02.812Z,45.29
2022-08-26T05:20:47.609Z,45.16
2022-08-26T05:23:32.446Z,44.65
2022-08-26T05:26:17.142Z,44.95
2022-08-26T05:29:07.886Z,44.75
2022-08-26T05:31:52.711Z,44.38
2022-08-26T05:34:37.511Z,44.14
2022-08-26T05:37:23.329Z,44.30
2022-08-26T05:40:08.209Z,44.66
2022-08-26T05:42:53.367Z,44.59
2022-08-26T05:45:41.191Z,44.26
2022-08-26T05:48:29.991Z,43.91
2022-08-26T05:51:14.776Z,43.94
2022-08-26T05:53:59.552Z,42.69
2022-08-26T05:56:44.285Z,43.21
2022-08-26T05:59:31.104Z,43.02
2022-08-26T06:02:17.372Z,42.96
2022-08-26T06:05:02.613Z,43.21
2022-08-26T06:07:48.362Z,43.17
2022-08-26T06:10:33.280Z,43.11
2022-08-26T06:13:18.301Z,43.13
2022-08-26T06:16:03.252Z,43.05
2022-08-26T06:18:49.432Z,42.11
2022-08-26T06:21:34.268Z,43.25
2022-08-26T06:24:18.958Z,43.75
2022-08-26T06:27:04.156Z,42.86
2022-08-26T06:29:48.766Z,43.21
2022-08-26T06:32:33.440Z,43.26
2022-08-26T06:35:18.124Z,43.64
2022-08-26T06:38:03.429Z,43.86
2022-08-26T06:40:48.164Z,43.53
2022-08-26T06:43:33.451Z,43.40
2022-08-26T06:46:18.308Z,42.76
2022-08-26T06:49:02.980Z,43.60
2022-08-26T06:51:47.653Z,43.05
2022-08-26T06:54:33.765Z,42.53
2022-08-26T06:57:18.579Z,42.47
2022-08-26T07:00:03.317Z,41.74
2022-08-26T07:02:49.154Z,42.51
2022-08-26T07:05:34.296Z,42.80
2022-08-26T07:08:20.002Z,42.58
2022-08-26T07:11:04.708Z,42.96
2022-08-26T07:13:49.877Z,42.49
2022-08-26T07:16:37.170Z,42.00
2022-08-26T07:19:30.737Z,42.24
2022-08-26T07:22:16.827Z,42.45
2022-08-26T07:25:01.992Z,43.92
2022-08-26T07:27:54.482Z,45.27
2022-08-26T07:30:39.845Z,45.92
2022-08-26T07:33:25.671Z,46.98
2022-08-26T07:36:10.238Z,46.99
2022-08-26T07:38:55.538Z,47.98
2022-08-26T07:41:40.213Z,47.48
2022-08-26T07:44:25.077Z,47.41
2022-08-26T07:47:25.431Z,47.68
2022-08-26T07:50:11.154Z,47.93
2022-08-26T07:52:56.395Z,47.59
2022-08-26T07:55:41.035Z,47.00
2022-08-26T07:58:25.832Z,45.73
2022-08-26T08:01:11.161Z,45.59
2022-08-26T08:03:55.970Z,45.58
2022-08-26T08:06:40.758Z,44.91
2022-08-26T08:09:29.021Z,45.19
2022-08-26T08:12:14.229Z,44.66
2022-08-26T08:14:58.994Z,43.00
2022-08-26T08:17:44.405Z,43.98
2022-08-26T08:20:29.178Z,43.94
2022-08-26T08:23:14.300Z,42.67
2022-08-26T08:25:59.441Z,41.97
2022-08-26T08:28:45.285Z,42.04
2022-08-26T08:34:38.104Z,42.48
2022-08-26T08:37:22.816Z,42.60
2022-08-26T08:40:07.670Z,42.77
2022-08-26T08:45:38.163Z,40.21
2022-08-26T08:48:27.614Z,40.87
2022-08-26T08:51:13.043Z,42.44
2022-08-26T08:53:57.794Z,42.89
2022-08-26T08:56:42.547Z,42.78
2022-08-26T08:59:27.461Z,43.38
2022-08-26T09:02:12.166Z,42.43
2022-08-26T09:04:57.575Z,41.53
2022-08-26T09:07:42.580Z,40.95
2022-08-26T09:10:31.655Z,39.70
2022-08-26T09:13:16.962Z,40.89
2022-08-26T09:16:10.363Z,41.07
2022-08-26T09:18:55.691Z,41.26
2022-08-26T09:21:40.293Z,41.18
2022-08-26T09:24:28.347Z,41.27
2022-08-26T09:27:13.815Z,41.16
2022-08-26T09:29:58.483Z,40.21
2022-08-26T09:32:43.218Z,40.58
2022-08-26T09:35:41.108Z,40.90
2022-08-26T09:38:26.799Z,40.55
2022-08-26T09:41:13.053Z,40.07
2022-08-26T09:43:58.369Z,40.14
2022-08-26T09:46:42.958Z,39.96
2022-08-26T09:49:28.617Z,41.18
2022-08-26T09:52:16.714Z,40.21
2022-08-26T09:55:01.477Z,39.93
2022-08-26T09:57:48.197Z,40.10
2022-08-26T10:00:32.925Z,40.63
2022-08-26T10:03:18.350Z,41.67
2022-08-26T10:06:03.610Z,39.98
2022-08-26T10:08:48.342Z,39.75
2022-08-26T10:11:36.187Z,39.10
2022-08-26T10:14:20.933Z,38.95
2022-08-26T10:17:07.092Z,38.85
2022-08-26T10:19:57.237Z,39.37
2022-08-26T10:22:42.897Z,39.86
2022-08-26T10:25:28.589Z,39.69
2022-08-26T10:28:13.471Z,39.60
2022-08-26T10:30:58.178Z,39.00
2022-08-26T10:33:42.975Z,38.91
2022-08-26T10:36:27.668Z,38.70
2022-08-26T10:39:12.809Z,39.57
2022-08-26T10:41:59.089Z,38.45
2022-08-26T10:44:43.923Z,39.13
2022-08-26T10:47:29.123Z,38.74
2022-08-26T10:50:14.497Z,38.65
2022-08-26T10:52:59.237Z,38.93
2022-08-26T10:55:44.924Z,38.16
2022-08-26T10:58:30.768Z,38.59
2022-08-26T11:01:16.882Z,39.00
2022-08-26T11:04:07.551Z,40.10
2022-08-26T11:06:52.215Z,41.04
2022-08-26T11:09:37.021Z,41.49
2022-08-26T11:12:23.200Z,42.29
2022-08-26T11:15:08.177Z,42.91
2022-08-26T11:17:53.873Z,43.47
2022-08-26T11:20:41.922Z,44.86
2022-08-26T11:23:26.871Z,44.58
2022-08-26T11:26:11.518Z,44.19
2022-08-26T11:29:03.816Z,45.91
2022-08-26T11:31:49.137Z,45.80
2022-08-26T11:34:33.942Z,47.72
2022-08-26T11:40:05.622Z,48.11
2022-08-26T11:42:50.719Z,48.89
2022-08-26T11:45:35.517Z,49.17
2022-08-26T11:48:22.220Z,49.95
2022-08-26T11:51:08.786Z,51.28
2022-08-26T11:53:53.605Z,51.23
2022-08-26T11:56:38.412Z,51.37
2022-08-26T11:59:23.098Z,51.71
2022-08-26T12:02:08.430Z,53.00
2022-08-26T12:04:56.136Z,54.10
2022-08-26T12:07:42.740Z,54.78
2022-08-26T12:10:29.486Z,55.35
2022-08-26T12:13:14.403Z,54.03
2022-08-26T12:16:00.882Z,58.55
2022-08-26T12:18:45.443Z,61.15
2022-08-26T12:21:34.666Z,62.22
2022-08-26T12:24:20.389Z,61.51
2022-08-26T12:27:05.468Z,61.00
2022-08-26T12:29:50.690Z,58.04
2022-08-26T12:32:35.397Z,56.18
2022-08-26T12:35:20.624Z,58.78
2022-08-26T12:38:05.449Z,57.67
2022-08-26T12:40:50.266Z,58.51
2022-08-26T12:43:35.161Z,57.15
2022-08-26T12:46:19.838Z,55.71
2022-08-26T12:49:04.676Z,57.42
2022-08-26T12:51:49.423Z,57.85
2022-08-26T12:54:34.249Z,57.93
2022-08-26T12:57:18.934Z,57.65
2022-08-26T13:00:03.735Z,58.37
2022-08-26T13:02:48.498Z,59.57
2022-08-26T13:05:33.233Z,59.02
2022-08-26T13:08:18.077Z,59.55
2022-08-26T13:11:02.919Z,58.45
2022-08-26T13:13:47.716Z,56.94
2022-08-26T13:16:33.430Z,57.51
2022-08-26T13:19:18.159Z,57.98
2022-08-26T13:22:02.775Z,60.11
2022-08-26T13:24:47.623Z,61.21
2022-08-26T13:27:32.299Z,61.86
2022-08-26T13:30:17.162Z,62.38
2022-08-26T13:33:02.194Z,62.63
2022-08-26T13:35:48.617Z,62.39
2022-08-26T13:38:34.189Z,59.77
2022-08-26T13:41:19.038Z,60.33
2022-08-26T13:44:14.400Z,59.55
2022-08-26T13:46:59.242Z,60.17
2022-08-26T13:49:44.060Z,59.19
2022-08-26T13:52:31.732Z,59.97
2022-08-26T13:55:16.561Z,63.10
2022-08-26T13:58:01.242Z,60.72
2022-08-26T14:00:46.175Z,63.89
2022-08-26T14:03:31.922Z,63.47
2022-08-26T14:06:17.054Z,62.79
2022-08-26T14:09:01.959Z,62.15
2022-08-26T14:11:53.930Z,63.69
2022-08-26T14:14:39.559Z,62.31
2022-08-26T14:17:24.389Z,60.34
2022-08-26T14:20:09.093Z,60.30
2022-08-26T14:25:59.033Z,58.59
2022-08-26T14:28:43.740Z,58.58
2022-08-26T14:31:28.586Z,59.95
2022-08-26T14:34:13.255Z,60.37
2022-08-26T14:36:58.041Z,59.87
2022-08-26T14:39:51.919Z,58.31
2022-08-26T14:42:37.170Z,57.53
2022-08-26T14:45:23.472Z,56.86
2022-08-26T14:48:08.436Z,56.79
2022-08-26T14:50:53.512Z,56.36
2022-08-26T14:53:38.221Z,53.80
2022-08-26T14:56:23.111Z,54.24
2022-08-26T14:59:07.926Z,54.77
2022-08-26T15:01:52.968Z,53.92
2022-08-26T15:04:38.060Z,54.06
2022-08-26T15:07:22.927Z,53.29
2022-08-26T15:10:07.572Z,53.49
2022-08-26T15:12:52.481Z,53.53
2022-08-26T15:15:37.040Z,53.88
2022-08-26T15:18:21.950Z,55.02
2022-08-26T15:21:06.668Z,52.94
2022-08-26T15:23:51.554Z,54.63
2022-08-26T15:26:36.346Z,55.36
2022-08-26T15:29:21.002Z,56.56
2022-08-26T15:32:05.867Z,53.13
2022-08-26T15:34:50.615Z,53.38
2022-08-26T15:37:35.445Z,56.71
2022-08-26T15:40:20.150Z,58.74
2022-08-26T15:43:25.452Z,58.24
2022-08-26T15:46:11.958Z,58.04
2022-08-26T15:48:56.933Z,59.10
2022-08-26T15:51:45.456Z,59.54
2022-08-26T15:54:31.198Z,58.47
2022-08-26T15:57:18.731Z,58.80
2022-08-26T16:00:04.473Z,58.71
2022-08-26T16:02:49.671Z,59.37
2022-08-26T16:05:34.409Z,60.41
2022-08-26T16:08:19.218Z,61.10
2022-08-26T16:11:03.879Z,60.48
2022-08-26T16:13:48.713Z,61.13
2022-08-26T16:16:33.345Z,61.77
2022-08-26T16:19:18.146Z,60.66
2022-08-26T16:22:02.842Z,61.07
2022-08-26T16:24:47.622Z,60.13
2022-08-26T16:27:32.356Z,59.57
2022-08-26T16:30:17.155Z,60.61
2022-08-26T16:33:02.055Z,59.87
2022-08-26T16:35:46.859Z,58.77
2022-08-26T16:38:32.292Z,58.63
2022-08-26T16:41:16.920Z,60.77
2022-08-26T16:44:01.643Z,60.61
2022-08-26T16:46:46.432Z,60.78
2022-08-26T16:49:31.552Z,62.38
2022-08-26T16:52:16.430Z,61.97
2022-08-26T16:55:01.247Z,62.09
2022-08-26T16:57:46.104Z,61.05
2022-08-26T17:00:30.871Z,60.88
2022-08-26T17:03:15.736Z,61.94
2022-08-26T17:06:00.473Z,62.15
2022-08-26T17:08:45.407Z,62.99
2022-08-26T17:11:30.533Z,61.88
2022-08-26T17:14:15.247Z,61.02
2022-08-26T17:17:00.031Z,61.25
2022-08-26T17:19:47.254Z,60.14
2022-08-26T17:22:34.609Z,59.63
2022-08-26T17:25:19.573Z,61.09
2022-08-26T17:28:04.437Z,63.96
2022-08-26T17:30:57.852Z,64.00
2022-08-26T17:33:42.714Z,65.00
2022-08-26T17:36:28.395Z,66.54
2022-08-26T17:39:13.460Z,66.07
2022-08-26T17:41:58.111Z,65.90
2022-08-26T17:44:42.902Z,64.22
2022-08-26T17:47:27.692Z,63.21
2022-08-26T17:50:12.437Z,62.62
2022-08-26T17:52:57.293Z,62.60
2022-08-26T17:55:41.919Z,63.14
2022-08-26T17:58:30.454Z,63.13
2022-08-26T18:01:15.233Z,62.07
2022-08-26T18:04:00.881Z,62.31
2022-08-26T18:06:46.227Z,61.87
2022-08-26T18:09:31.014Z,61.85
2022-08-26T18:12:15.809Z,61.92
2022-08-26T18:15:00.520Z,61.41
2022-08-26T18:17:45.339Z,63.27
2022-08-26T18:20:30.023Z,64.02
2022-08-26T18:23:14.830Z,65.36
2022-08-26T18:25:59.501Z,64.02
2022-08-26T18:28:44.309Z,64.02
2022-08-26T18:31:29.233Z,64.70
2022-08-26T18:34:14.419Z,63.99
2022-08-26T18:36:59.219Z,66.38
2022-08-26T18:39:43.815Z,66.78
2022-08-26T18:42:28.658Z,65.29
2022-08-26T18:45:16.130Z,67.11
2022-08-26T18:48:01.393Z,65.71
2022-08-26T18:50:47.503Z,64.83
2022-08-26T18:53:32.293Z,64.43
2022-08-26T18:56:19.539Z,65.03
2022-08-26T18:59:04.280Z,65.23
2022-08-26T19:01:49.058Z,64.25
2022-08-26T19:04:35.588Z,64.75
2022-08-26T19:07:20.303Z,64.76
2022-08-26T19:10:05.334Z,65.39
2022-08-26T19:12:51.969Z,64.35
2022-08-26T19:15:36.996Z,64.10
2022-08-26T19:18:21.788Z,65.30
2022-08-26T19:21:06.362Z,65.16
2022-08-26T19:23:51.274Z,64.35
2022-08-26T19:26:35.950Z,65.37
2022-08-26T19:29:20.991Z,65.55
2022-08-26T19:32:05.613Z,66.03
2022-08-26T19:34:50.424Z,65.87
2022-08-26T19:37:35.134Z,66.09
2022-08-26T19:40:19.953Z,65.41
2022-08-26T19:43:04.694Z,66.14
2022-08-26T19:45:49.958Z,65.94
2022-08-26T19:48:34.770Z,66.07
2022-08-26T19:51:19.460Z,65.50
2022-08-26T19:54:04.446Z,66.58
2022-08-26T19:56:49.833Z,66.49
2022-08-26T19:59:34.963Z,66.66
2022-08-26T20:02:19.797Z,66.92
2022-08-26T20:05:05.047Z,67.28
2022-08-26T20:07:49.845Z,67.33
2022-08-26T20:10:34.623Z,66.48
2022-08-26T20:13:19.397Z,67.15
2022-08-26T20:16:04.133Z,66.57
2022-08-26T20:18:48.997Z,66.33
2022-08-26T20:21:33.726Z,66.38
2022-08-26T20:24:18.531Z,65.61
2022-08-26T20:27:07.282Z,65.43
2022-08-26T20:29:52.918Z,65.36
2022-08-26T20:32:37.719Z,64.68
2022-08-26T20:35:22.452Z,65.32
2022-08-26T20:38:07.195Z,65.06
2022-08-26T20:40:51.874Z,64.52
2022-08-26T20:43:41.188Z,64.65
2022-08-26T20:46:26.124Z,64.14
2022-08-26T20:49:11.181Z,64.36
2022-08-26T20:51:56.101Z,64.45
2022-08-26T20:54:40.788Z,64.48
2022-08-26T20:57:25.753Z,64.56
2022-08-26T21:00:10.523Z,64.44
2022-08-26T21:02:55.303Z,63.89
2022-08-26T21:05:40.151Z,64.22
2022-08-26T21:08:24.812Z,64.50
2022-08-26T21:11:10.170Z,64.14
2022-08-26T21:14:06.826Z,64.65
2022-08-26T21:17:00.845Z,65.53
2022-08-26T21:19:45.668Z,64.83
2022-08-26T21:22:30.402Z,65.57
2022-08-26T21:25:15.395Z,65.14
2022-08-26T21:28:00.136Z,64.74
2022-08-26T21:30:44.905Z,64.24
2022-08-26T21:33:29.634Z,64.36
2022-08-26T21:36:14.857Z,64.40
2022-08-26T21:38:59.587Z,64.65
2022-08-26T21:41:44.311Z,65.81
2022-08-26T21:44:29.199Z,65.26
2022-08-26T21:47:15.170Z,65.37
2022-08-26T21:50:00.046Z,65.44
2022-08-26T21:52:44.819Z,65.44
2022-08-26T21:55:29.908Z,65.35
2022-08-26T21:58:14.576Z,64.91
2022-08-26T22:00:59.614Z,65.92
2022-08-26T22:03:47.525Z,65.76
2022-08-26T22:06:32.754Z,65.93
2022-08-26T22:09:17.646Z,65.74
2022-08-26T22:12:02.310Z,65.72
2022-08-26T22:14:47.084Z,65.69
2022-08-26T22:17:31.785Z,66.20
2022-08-26T22:20:16.893Z,66.07
2022-08-26T22:23:01.770Z,65.91
2022-08-26T22:25:46.520Z,65.40
2022-08-26T22:28:31.239Z,64.84
2022-08-26T22:31:16.018Z,64.98
2022-08-26T22:34:00.834Z,65.11
2022-08-26T22:36:45.716Z,65.30
2022-08-26T22:39:30.461Z,65.41
2022-08-26T22:42:15.259Z,64.76
2022-08-26T22:45:00.067Z,64.86
2022-08-26T22:47:45.494Z,65.04
2022-08-26T22:50:30.159Z,64.76
2022-08-26T22:53:15.051Z,65.32
2022-08-26T22:55:59.769Z,65.58
2022-08-26T22:58:45.620Z,66.10
2022-08-26T23:01:30.611Z,66.07
2022-08-26T23:04:15.919Z,65.58
2022-08-26T23:07:00.793Z,65.65
2022-08-26T23:09:45.592Z,66.06
2022-08-26T23:12:30.566Z,65.61
2022-08-26T23:15:15.272Z,64.73
2022-08-26T23:18:03.307Z,64.18
2022-08-26T23:20:47.993Z,64.16
2022-08-26T23:23:32.806Z,64.52
2022-08-26T23:26:17.916Z,64.59
2022-08-26T23:29:03.006Z,64.48
2022-08-26T23:31:48.064Z,64.00
2022-08-26T23:34:33.300Z,65.07
2022-08-26T23:37:18.108Z,65.67
2022-08-26T23:40:03.966Z,65.83
2022-08-26T23:42:49.334Z,65.29
2022-08-26T23:45:34.214Z,65.16
2022-08-26T23:48:19.531Z,64.34
2022-08-26T23:51:04.823Z,64.85
2022-08-26T23:53:49.563Z,64.87
2022-08-26T23:56:34.453Z,64.81
2022-08-26T23:59:19.283Z,64.60
